Avalon Express — WDD7919 — position and weather

sailwx.info

Track history (hours):
 
Tides and Currents Weather Stations Pressure Air Temp Water Temp Dewpoint Dewpoint Depression Visibility Wind Speed Wind Dir Waves Ship Positions

Avalon Express

Owner: RGWT INC, San Pedro, CA. More information available from US FCC via Universal Licensing System and Coast Guard Vessel Documentation Center.

Last reported at 2017-May-24 03:22 UTC. Time now 2017-May-24 10:05 UTC.
Position N 33°45' W 118°16'.

Length 33 m.

Type: High speed craft. MMSI: 367192940.

Date/timePositionNaut miles runAvg speedWind from/ knotsBaromVisibWave heightAir tempDewpointWater temp
2017-May-24 03:22N 33°45' W 118°16'2 6.6
2017-May-24 03:00N 33°43' W 118°15'4 8.1
2017-May-24 02:30N 33°46' W 118°12'0 0.1
2017-May-24 02:01N 33°46' W 118°12'0 0.1
2017-May-24 01:30N 33°46' W 118°12'3 5.5
2017-May-24 01:01N 33°43' W 118°11'1224.7
2017-May-24 00:30N 33°31' W 118°15'1122.5
2017-May-24 00:00N 33°21' W 118°19'0 0.1
2017-May-23 23:30N 33°21' W 118°19'1 1.2
2017-May-23 23:00N 33°21' W 118°20'0 0.1
2017-May-23 22:30N 33°21' W 118°20'0 0.0
2017-May-23 22:00N 33°21' W 118°20'0 0.0
2017-May-23 21:28N 33°21' W 118°20'0 0.0
2017-May-23 20:58N 33°21' W 118°20'0 0.1
2017-May-23 20:25N 33°21' W 118°20'0 0.0
2017-May-23 20:00N 33°21' W 118°20'0 0.0
2017-May-23 19:30N 33°21' W 118°20'0 0.0
2017-May-23 19:00N 33°21' W 118°20'1 1.3
2017-May-23 18:30N 33°21' W 118°19'5 9.2
2017-May-23 18:01N 33°22' W 118°14'1223.9
2017-May-23 17:30N 33°25' W 118°00'1224.1
2017-May-23 17:01N 33°27' W 117°46'4 7.6
2017-May-23 16:30N 33°28' W 117°42'0 0.0
2017-May-23 16:00N 33°28' W 117°42'0 0.1
2017-May-23 15:30N 33°28' W 117°41'0 0.0
2017-May-23 02:22N 33°28' W 117°42'1 1.5
2017-May-23 02:01N 33°27' W 117°42'1224.5
2017-May-23 01:31N 33°24' W 117°56'1224.6
2017-May-23 01:00N 33°22' W 118°10'814.1
2017-May-23 00:28N 33°21' W 118°19'4 8.3
2017-May-23 00:00N 33°21' W 118°15'1325.1
2017-May-22 23:31N 33°24' W 118°00'1224.7
2017-May-22 23:01N 33°26' W 117°46'4 7.4
2017-May-22 22:31N 33°28' W 117°42'0 0.0
2017-May-22 22:00N 33°28' W 117°42'0 0.0
2017-May-22 21:31N 33°28' W 117°42'0 0.0
2017-May-22 21:01N 33°28' W 117°42'0 0.0
2017-May-22 20:31N 33°28' W 117°42'4 7.9
2017-May-22 20:01N 33°27' W 117°46'1325.5
2017-May-22 19:31N 33°24' W 118°01'1325.3
2017-May-22 19:00N 33°21' W 118°16'3 5.8
2017-May-22 18:30N 33°21' W 118°19'510.9
2017-May-22 18:00N 33°22' W 118°13'1224.3
2017-May-22 17:30N 33°24' W 117°58'1224.3
2017-May-22 17:01N 33°27' W 117°44'3 5.2
2017-May-22 16:30N 33°28' W 117°42'0 0.1
2017-May-22 16:00N 33°28' W 117°41'0 0.0
2017-May-22 15:30N 33°28' W 117°41'0 0.0
2017-May-22 03:16N 33°28' W 117°42'2 8.6
2017-May-22 03:01N 33°26' W 117°44'1325.5
2017-May-22 02:31N 33°24' W 117°59'1325.1
2017-May-22 02:00N 33°22' W 118°13'510.0
2017-May-22 01:30N 33°21' W 118°19'4 8.0
2017-May-22 01:01N 33°22' W 118°15'1326.0
2017-May-22 00:31N 33°24' W 117°59'1325.4
2017-May-22 00:01N 33°27' W 117°45'3 5.3
2017-May-21 23:30N 33°28' W 117°42'0 0.1
2017-May-21 23:00N 33°28' W 117°41'0 0.1
2017-May-21 22:30N 33°28' W 117°42'816.7
2017-May-21 22:01N 33°25' W 117°51'1325.8
2017-May-21 21:31N 33°23' W 118°06'1122.1
2017-May-21 21:00N 33°21' W 118°19'0 0.0
2017-May-21 20:30N 33°21' W 118°19'917.8
2017-May-21 20:00N 33°23' W 118°09'1224.9
2017-May-21 19:31N 33°25' W 117°54'1122.1
2017-May-21 19:00N 33°27' W 117°42'0 0.3
2017-May-21 18:30N 33°28' W 117°42'4 7.3
2017-May-21 18:01N 33°26' W 117°46'1325.9
2017-May-21 17:30N 33°24' W 118°01'1326.0
2017-May-21 17:01N 33°21' W 118°16'3 5.5
2017-May-21 16:30N 33°21' W 118°19'713.3
2017-May-21 16:01N 33°22' W 118°12'1325.0
2017-May-21 15:31N 33°24' W 117°57'1224.2
2017-May-21 15:00N 33°26' W 117°43'1 2.9
2017-May-21 14:31N 33°28' W 117°42'0 0.0
2017-May-21 03:46N 33°28' W 117°42'0 0.0
2017-May-21 03:31N 33°28' W 117°42'713.2
2017-May-21 03:01N 33°25' W 117°49'1223.7
2017-May-21 02:31N 33°23' W 118°03'1223.9
2017-May-21 02:01N 33°21' W 118°17'2 4.2
2017-May-21 01:30N 33°21' W 118°19'815.9
2017-May-21 01:00N 33°18' W 118°11'1122.6
2017-May-21 00:31N 33°21' W 117°58'1223.9
2017-May-21 00:01N 33°26' W 117°45'3 6.0
2017-May-20 23:30N 33°28' W 117°42'0 0.0
2017-May-20 23:00N 33°28' W 117°42'0 0.5
2017-May-20 22:30N 33°27' W 117°42'1122.6
2017-May-20 22:01N 33°24' W 117°54'1223.5
2017-May-20 21:31N 33°23' W 118°08'918.5
2017-May-20 21:00N 33°21' W 118°19'3 5.7
2017-May-20 20:31N 33°21' W 118°16'918.3
2017-May-20 20:01N 33°23' W 118°05'1224.3
2017-May-20 19:31N 33°25' W 117°51'816.6
2017-May-20 19:00N 33°28' W 117°42'0 0.0
2017-May-20 18:30N 33°28' W 117°42'4 7.3
2017-May-20 18:01N 33°26' W 117°46'1325.6
2017-May-20 17:31N 33°24' W 118°01'1325.5
2017-May-20 17:01N 33°21' W 118°16'3 6.4
2017-May-20 16:30N 33°21' W 118°19'510.2
2017-May-20 16:01N 33°22' W 118°14'1224.4
2017-May-20 15:31N 33°25' W 117°59'1224.6
2017-May-20 15:01N 33°27' W 117°45'3 5.8
2017-May-20 14:30N 33°28' W 117°42'0 0.1
2017-May-20 13:30N 33°28' W 117°41'0 0.0
2017-May-20 04:44N 33°28' W 117°42'0 0.0
2017-May-20 04:30N 33°28' W 117°42'0 0.0
2017-May-20 04:00N 33°28' W 117°42'0 0.0
2017-May-20 03:30N 33°28' W 117°42'2 3.4
2017-May-20 03:00N 33°27' W 117°43'1326.0
2017-May-20 02:31N 33°24' W 117°58'1325.7
2017-May-20 02:00N 33°22' W 118°13'510.0
2017-May-20 01:31N 33°21' W 118°19'4 7.4
2017-May-20 01:01N 33°21' W 118°15'1325.6
2017-May-20 00:31N 33°24' W 117°60'1325.4
2017-May-20 00:01N 33°26' W 117°45'3 6.3
2017-May-19 23:30N 33°28' W 117°42'0 0.0
2017-May-19 23:00N 33°28' W 117°42'0 0.0
2017-May-19 22:31N 33°28' W 117°42'714.4
2017-May-19 22:01N 33°26' W 117°50'1326.4
2017-May-19 21:31N 33°23' W 118°05'1223.7
2017-May-19 21:00N 33°21' W 118°19'0 0.0
2017-May-19 20:24N 33°21' W 118°19'922.6
2017-May-19 20:01N 33°22' W 118°09'1224.7
2017-May-19 19:31N 33°25' W 117°54'1122.2
2017-May-19 19:01N 33°27' W 117°42'0 0.4
2017-May-19 18:31N 33°28' W 117°42'3 6.2
2017-May-19 18:01N 33°27' W 117°45'1326.0
2017-May-19 17:31N 33°24' W 118°00'1326.1
2017-May-19 17:01N 33°21' W 118°16'3 6.4
2017-May-19 16:30N 33°21' W 118°19'3 6.1
2017-May-19 16:01N 33°21' W 118°16'1325.5
2017-May-19 15:31N 33°24' W 118°01'1325.6
2017-May-19 15:01N 33°26' W 117°46'4 3.9
2017-May-19 14:01N 33°28' W 117°41'0 0.1
2017-May-19 13:30N 33°28' W 117°41'0 0.0
2017-May-19 02:38N 33°28' W 117°42'0 0.0
2017-May-19 02:31N 33°28' W 117°42'0 0.2
2017-May-19 02:00N 33°27' W 117°42'1123.0
2017-May-19 01:31N 33°25' W 117°55'1325.5
2017-May-19 01:01N 33°23' W 118°10'815.9
2017-May-19 00:30N 33°21' W 118°19'1 1.6
2017-May-19 00:00N 33°21' W 118°20'0 0.0
2017-May-18 23:30N 33°21' W 118°20'0 0.0
2017-May-18 23:00N 33°21' W 118°20'0 0.0
2017-May-18 22:27N 33°21' W 118°20'0 0.0
2017-May-18 22:00N 33°21' W 118°20'0 0.0
2017-May-18 21:30N 33°21' W 118°20'0 0.0
2017-May-18 21:00N 33°21' W 118°20'0 0.0
2017-May-18 20:30N 33°21' W 118°20'0 0.0
2017-May-18 19:58N 33°21' W 118°20'0 0.0
2017-May-18 19:30N 33°21' W 118°20'0 0.0
2017-May-18 19:00N 33°21' W 118°20'1 0.9
2017-May-18 18:12N 33°21' W 118°19'624.6
2017-May-18 17:56N 33°22' W 118°12'1125.1
2017-May-18 17:31N 33°24' W 117°59'1224.9
2017-May-18 17:00N 33°27' W 117°44'3 5.1
2017-May-18 16:30N 33°28' W 117°42'0 0.0
2017-May-18 16:00N 33°28' W 117°42'0 0.0
2017-May-18 15:31N 33°28' W 117°42'0 0.0
2017-May-18 15:01N 33°28' W 117°42'0 0.0
2017-May-18 03:02N 33°28' W 117°42'0 0.0
2017-May-18 03:00N 33°28' W 117°42'0 0.0
2017-May-18 02:30N 33°28' W 117°42'0 0.6
2017-May-18 02:01N 33°27' W 117°41'1325.6
2017-May-18 01:31N 33°25' W 117°56'1725.8
2017-May-18 00:51N 33°21' W 118°16'3 1.9
2017-May-17 23:23N 33°21' W 118°20'0 0.0
2017-May-17 22:59N 33°21' W 118°20'0 0.1
2017-May-17 22:29N 33°21' W 118°20'0 0.0
2017-May-17 21:52N 33°21' W 118°20'0 0.0
2017-May-17 21:29N 33°21' W 118°20'0 0.1
2017-May-17 20:57N 33°21' W 118°20'0 0.0
2017-May-17 20:13N 33°21' W 118°20'0 0.1
2017-May-17 19:29N 33°21' W 118°20'1 0.5
2017-May-17 18:14N 33°21' W 118°19'522.8
2017-May-17 18:00N 33°22' W 118°13'1225.3
2017-May-17 17:31N 33°24' W 117°58'1224.9
2017-May-17 17:00N 33°27' W 117°44'2 4.2
2017-May-17 16:31N 33°28' W 117°42'0 0.0
2017-May-17 16:00N 33°28' W 117°42'0 0.0
2017-May-17 15:30N 33°28' W 117°42'0 0.0
2017-May-17 15:01N 33°28' W 117°42'0 0.0
2017-May-17 02:12N 33°28' W 117°42'1 3.7
2017-May-17 02:00N 33°27' W 117°42'1325.2
2017-May-17 01:31N 33°25' W 117°57'1325.1
2017-May-17 01:00N 33°22' W 118°11'7 9.8
2017-May-17 00:19N 33°21' W 118°19'0 0.0
2017-May-16 23:59N 33°21' W 118°19'0 0.5
2017-May-16 23:30N 33°21' W 118°19'0 0.2
2017-May-16 21:55N 33°21' W 118°20'0 0.1
2017-May-16 19:36N 33°21' W 118°19'0 0.4
2017-May-16 19:13N 33°21' W 118°19'2 0.1
2017-May-15 20:11N 33°23' W 118°20'2 0.1
2017-May-15 00:49N 33°24' W 118°19'3 4.4
2017-May-15 00:13N 33°21' W 118°19'1 0.3
2017-May-14 19:41N 33°22' W 118°19'1 2.2
2017-May-14 19:04N 33°21' W 118°19'24 1.8
2017-May-14 05:32N 33°45' W 118°16'0 0.0
2017-May-14 05:30N 33°45' W 118°16'2 4.7
2017-May-14 05:00N 33°43' W 118°15'1020.8
2017-May-14 04:30N 33°32' W 118°17'1223.8
2017-May-14 04:00N 33°21' W 118°19'0 0.7
2017-May-14 03:30N 33°21' W 118°19'  
Track history (hours):
 
Tides and Currents Weather Stations Pressure Air Temp Water Temp Dewpoint Dewpoint Depression Visibility Wind Speed Wind Dir Waves Ship Positions

Avalon Express

Owner: RGWT INC, San Pedro, CA. More information available from US FCC via Universal Licensing System and Coast Guard Vessel Documentation Center.

Last reported at 2017-May-24 03:22 UTC. Time now 2017-May-24 10:05 UTC.
Position N 33°45' W 118°16'.

Length 33 m.

Type: High speed craft. MMSI: 367192940.

Date/timePositionNaut miles runAvg speedWind from/ knotsBaromVisibWave heightAir tempDewpointWater temp
2017-May-24 03:22N 33°45' W 118°16'2 6.6
2017-May-24 03:00N 33°43' W 118°15'4 8.1
2017-May-24 02:30N 33°46' W 118°12'0 0.1
2017-May-24 02:01N 33°46' W 118°12'0 0.1
2017-May-24 01:30N 33°46' W 118°12'3 5.5
2017-May-24 01:01N 33°43' W 118°11'1224.7
2017-May-24 00:30N 33°31' W 118°15'1122.5
2017-May-24 00:00N 33°21' W 118°19'0 0.1
2017-May-23 23:30N 33°21' W 118°19'1 1.2
2017-May-23 23:00N 33°21' W 118°20'0 0.1
2017-May-23 22:30N 33°21' W 118°20'0 0.0
2017-May-23 22:00N 33°21' W 118°20'0 0.0
2017-May-23 21:28N 33°21' W 118°20'0 0.0
2017-May-23 20:58N 33°21' W 118°20'0 0.1
2017-May-23 20:25N 33°21' W 118°20'0 0.0
2017-May-23 20:00N 33°21' W 118°20'0 0.0
2017-May-23 19:30N 33°21' W 118°20'0 0.0
2017-May-23 19:00N 33°21' W 118°20'1 1.3
2017-May-23 18:30N 33°21' W 118°19'5 9.2
2017-May-23 18:01N 33°22' W 118°14'1223.9
2017-May-23 17:30N 33°25' W 118°00'1224.1
2017-May-23 17:01N 33°27' W 117°46'4 7.6
2017-May-23 16:30N 33°28' W 117°42'0 0.0
2017-May-23 16:00N 33°28' W 117°42'0 0.1
2017-May-23 15:30N 33°28' W 117°41'0 0.0
2017-May-23 02:22N 33°28' W 117°42'1 1.5
2017-May-23 02:01N 33°27' W 117°42'1224.5
2017-May-23 01:31N 33°24' W 117°56'1224.6
2017-May-23 01:00N 33°22' W 118°10'814.1
2017-May-23 00:28N 33°21' W 118°19'4 8.3
2017-May-23 00:00N 33°21' W 118°15'1325.1
2017-May-22 23:31N 33°24' W 118°00'1224.7
2017-May-22 23:01N 33°26' W 117°46'4 7.4
2017-May-22 22:31N 33°28' W 117°42'0 0.0
2017-May-22 22:00N 33°28' W 117°42'0 0.0
2017-May-22 21:31N 33°28' W 117°42'0 0.0
2017-May-22 21:01N 33°28' W 117°42'0 0.0
2017-May-22 20:31N 33°28' W 117°42'4 7.9
2017-May-22 20:01N 33°27' W 117°46'1325.5
2017-May-22 19:31N 33°24' W 118°01'1325.3
2017-May-22 19:00N 33°21' W 118°16'3 5.8
2017-May-22 18:30N 33°21' W 118°19'510.9
2017-May-22 18:00N 33°22' W 118°13'1224.3
2017-May-22 17:30N 33°24' W 117°58'1224.3
2017-May-22 17:01N 33°27' W 117°44'3 5.2
2017-May-22 16:30N 33°28' W 117°42'0 0.1
2017-May-22 16:00N 33°28' W 117°41'0 0.0
2017-May-22 15:30N 33°28' W 117°41'0 0.0
2017-May-22 03:16N 33°28' W 117°42'2 8.6
2017-May-22 03:01N 33°26' W 117°44'1325.5
2017-May-22 02:31N 33°24' W 117°59'1325.1
2017-May-22 02:00N 33°22' W 118°13'510.0
2017-May-22 01:30N 33°21' W 118°19'4 8.0
2017-May-22 01:01N 33°22' W 118°15'1326.0
2017-May-22 00:31N 33°24' W 117°59'1325.4
2017-May-22 00:01N 33°27' W 117°45'3 5.3
2017-May-21 23:30N 33°28' W 117°42'0 0.1
2017-May-21 23:00N 33°28' W 117°41'0 0.1
2017-May-21 22:30N 33°28' W 117°42'816.7
2017-May-21 22:01N 33°25' W 117°51'1325.8
2017-May-21 21:31N 33°23' W 118°06'1122.1
2017-May-21 21:00N 33°21' W 118°19'0 0.0
2017-May-21 20:30N 33°21' W 118°19'917.8
2017-May-21 20:00N 33°23' W 118°09'1224.9
2017-May-21 19:31N 33°25' W 117°54'1122.1
2017-May-21 19:00N 33°27' W 117°42'0 0.3
2017-May-21 18:30N 33°28' W 117°42'4 7.3
2017-May-21 18:01N 33°26' W 117°46'1325.9
2017-May-21 17:30N 33°24' W 118°01'1326.0
2017-May-21 17:01N 33°21' W 118°16'3 5.5
2017-May-21 16:30N 33°21' W 118°19'713.3
2017-May-21 16:01N 33°22' W 118°12'1325.0
2017-May-21 15:31N 33°24' W 117°57'1224.2
2017-May-21 15:00N 33°26' W 117°43'1 2.9
2017-May-21 14:31N 33°28' W 117°42'0 0.0
2017-May-21 03:46N 33°28' W 117°42'0 0.0
2017-May-21 03:31N 33°28' W 117°42'713.2
2017-May-21 03:01N 33°25' W 117°49'1223.7
2017-May-21 02:31N 33°23' W 118°03'1223.9
2017-May-21 02:01N 33°21' W 118°17'2 4.2
2017-May-21 01:30N 33°21' W 118°19'815.9
2017-May-21 01:00N 33°18' W 118°11'1122.6
2017-May-21 00:31N 33°21' W 117°58'1223.9
2017-May-21 00:01N 33°26' W 117°45'3 6.0
2017-May-20 23:30N 33°28' W 117°42'0 0.0
2017-May-20 23:00N 33°28' W 117°42'0 0.5
2017-May-20 22:30N 33°27' W 117°42'1122.6
2017-May-20 22:01N 33°24' W 117°54'1223.5
2017-May-20 21:31N 33°23' W 118°08'918.5
2017-May-20 21:00N 33°21' W 118°19'3 5.7
2017-May-20 20:31N 33°21' W 118°16'918.3
2017-May-20 20:01N 33°23' W 118°05'1224.3
2017-May-20 19:31N 33°25' W 117°51'816.6
2017-May-20 19:00N 33°28' W 117°42'0 0.0
2017-May-20 18:30N 33°28' W 117°42'4 7.3
2017-May-20 18:01N 33°26' W 117°46'1325.6
2017-May-20 17:31N 33°24' W 118°01'1325.5
2017-May-20 17:01N 33°21' W 118°16'3 6.4
2017-May-20 16:30N 33°21' W 118°19'510.2
2017-May-20 16:01N 33°22' W 118°14'1224.4
2017-May-20 15:31N 33°25' W 117°59'1224.6
2017-May-20 15:01N 33°27' W 117°45'3 5.8
2017-May-20 14:30N 33°28' W 117°42'0 0.1
2017-May-20 13:30N 33°28' W 117°41'0 0.0
2017-May-20 04:44N 33°28' W 117°42'0 0.0
2017-May-20 04:30N 33°28' W 117°42'0 0.0
2017-May-20 04:00N 33°28' W 117°42'0 0.0
2017-May-20 03:30N 33°28' W 117°42'2 3.4
2017-May-20 03:00N 33°27' W 117°43'1326.0
2017-May-20 02:31N 33°24' W 117°58'1325.7
2017-May-20 02:00N 33°22' W 118°13'510.0
2017-May-20 01:31N 33°21' W 118°19'4 7.4
2017-May-20 01:01N 33°21' W 118°15'1325.6
2017-May-20 00:31N 33°24' W 117°60'1325.4
2017-May-20 00:01N 33°26' W 117°45'3 6.3
2017-May-19 23:30N 33°28' W 117°42'0 0.0
2017-May-19 23:00N 33°28' W 117°42'0 0.0
2017-May-19 22:31N 33°28' W 117°42'714.4
2017-May-19 22:01N 33°26' W 117°50'1326.4
2017-May-19 21:31N 33°23' W 118°05'1223.7
2017-May-19 21:00N 33°21' W 118°19'0 0.0
2017-May-19 20:24N 33°21' W 118°19'922.6
2017-May-19 20:01N 33°22' W 118°09'1224.7
2017-May-19 19:31N 33°25' W 117°54'1122.2
2017-May-19 19:01N 33°27' W 117°42'0 0.4
2017-May-19 18:31N 33°28' W 117°42'3 6.2
2017-May-19 18:01N 33°27' W 117°45'1326.0
2017-May-19 17:31N 33°24' W 118°00'1326.1
2017-May-19 17:01N 33°21' W 118°16'3 6.4
2017-May-19 16:30N 33°21' W 118°19'3 6.1
2017-May-19 16:01N 33°21' W 118°16'1325.5
2017-May-19 15:31N 33°24' W 118°01'1325.6
2017-May-19 15:01N 33°26' W 117°46'4 3.9
2017-May-19 14:01N 33°28' W 117°41'0 0.1
2017-May-19 13:30N 33°28' W 117°41'0 0.0
2017-May-19 02:38N 33°28' W 117°42'0 0.0
2017-May-19 02:31N 33°28' W 117°42'0 0.2
2017-May-19 02:00N 33°27' W 117°42'1123.0
2017-May-19 01:31N 33°25' W 117°55'1325.5
2017-May-19 01:01N 33°23' W 118°10'815.9
2017-May-19 00:30N 33°21' W 118°19'1 1.6
2017-May-19 00:00N 33°21' W 118°20'0 0.0
2017-May-18 23:30N 33°21' W 118°20'0 0.0
2017-May-18 23:00N 33°21' W 118°20'0 0.0
2017-May-18 22:27N 33°21' W 118°20'0 0.0
2017-May-18 22:00N 33°21' W 118°20'0 0.0
2017-May-18 21:30N 33°21' W 118°20'0 0.0
2017-May-18 21:00N 33°21' W 118°20'0 0.0
2017-May-18 20:30N 33°21' W 118°20'0 0.0
2017-May-18 19:58N 33°21' W 118°20'0 0.0
2017-May-18 19:30N 33°21' W 118°20'0 0.0
2017-May-18 19:00N 33°21' W 118°20'1 0.9
2017-May-18 18:12N 33°21' W 118°19'624.6
2017-May-18 17:56N 33°22' W 118°12'1125.1
2017-May-18 17:31N 33°24' W 117°59'1224.9
2017-May-18 17:00N 33°27' W 117°44'3 5.1
2017-May-18 16:30N 33°28' W 117°42'0 0.0
2017-May-18 16:00N 33°28' W 117°42'0 0.0
2017-May-18 15:31N 33°28' W 117°42'0 0.0
2017-May-18 15:01N 33°28' W 117°42'0 0.0
2017-May-18 03:02N 33°28' W 117°42'0 0.0
2017-May-18 03:00N 33°28' W 117°42'0 0.0
2017-May-18 02:30N 33°28' W 117°42'0 0.6
2017-May-18 02:01N 33°27' W 117°41'1325.6
2017-May-18 01:31N 33°25' W 117°56'1725.8
2017-May-18 00:51N 33°21' W 118°16'3 1.9
2017-May-17 23:23N 33°21' W 118°20'0 0.0
2017-May-17 22:59N 33°21' W 118°20'0 0.1
2017-May-17 22:29N 33°21' W 118°20'0 0.0
2017-May-17 21:52N 33°21' W 118°20'0 0.0
2017-May-17 21:29N 33°21' W 118°20'0 0.1
2017-May-17 20:57N 33°21' W 118°20'0 0.0
2017-May-17 20:13N 33°21' W 118°20'0 0.1
2017-May-17 19:29N 33°21' W 118°20'1 0.5
2017-May-17 18:14N 33°21' W 118°19'522.8
2017-May-17 18:00N 33°22' W 118°13'1225.3
2017-May-17 17:31N 33°24' W 117°58'1224.9
2017-May-17 17:00N 33°27' W 117°44'2 4.2
2017-May-17 16:31N 33°28' W 117°42'0 0.0
2017-May-17 16:00N 33°28' W 117°42'0 0.0
2017-May-17 15:30N 33°28' W 117°42'0 0.0
2017-May-17 15:01N 33°28' W 117°42'0 0.0
2017-May-17 02:12N 33°28' W 117°42'1 3.7
2017-May-17 02:00N 33°27' W 117°42'1325.2
2017-May-17 01:31N 33°25' W 117°57'1325.1
2017-May-17 01:00N 33°22' W 118°11'7 9.8
2017-May-17 00:19N 33°21' W 118°19'0 0.0
2017-May-16 23:59N 33°21' W 118°19'0 0.5
2017-May-16 23:30N 33°21' W 118°19'0 0.2
2017-May-16 21:55N 33°21' W 118°20'0 0.1
2017-May-16 19:36N 33°21' W 118°19'0 0.4
2017-May-16 19:13N 33°21' W 118°19'2 0.1
2017-May-15 20:11N 33°23' W 118°20'2 0.1
2017-May-15 00:49N 33°24' W 118°19'3 4.4
2017-May-15 00:13N 33°21' W 118°19'1 0.3
2017-May-14 19:41N 33°22' W 118°19'1 2.2
2017-May-14 19:04N 33°21' W 118°19'24 1.8
2017-May-14 05:32N 33°45' W 118°16'0 0.0
2017-May-14 05:30N 33°45' W 118°16'2 4.7
2017-May-14 05:00N 33°43' W 118°15'1020.8
2017-May-14 04:30N 33°32' W 118°17'1223.8
2017-May-14 04:00N 33°21' W 118°19'0 0.7
2017-May-14 03:30N 33°21' W 118°19'  

Dump ship's entire track history